sensor_id;sensor_type;location;lat;lon;timestamp;P1;durP1;ratioP1;P2;durP2;ratioP2
948;SDS011;461;51.436;7.312;2024-03-02T00:02:24;3.70;;;2.50;;
948;SDS011;461;51.436;7.312;2024-03-02T00:04:50;4.00;;;3.30;;
948;SDS011;461;51.436;7.312;2024-03-02T00:07:16;2.90;;;2.70;;
948;SDS011;461;51.436;7.312;2024-03-02T00:09:43;2.17;;;1.97;;
948;SDS011;461;51.436;7.312;2024-03-02T00:12:10;2.70;;;2.37;;
948;SDS011;461;51.436;7.312;2024-03-02T00:14:40;3.00;;;2.50;;
948;SDS011;461;51.436;7.312;2024-03-02T00:17:08;1.63;;;1.53;;
948;SDS011;461;51.436;7.312;2024-03-02T00:19:49;3.47;;;2.73;;
948;SDS011;461;51.436;7.312;2024-03-02T00:22:15;4.63;;;2.60;;
948;SDS011;461;51.436;7.312;2024-03-02T00:24:41;4.63;;;2.27;;
948;SDS011;461;51.436;7.312;2024-03-02T00:27:07;3.50;;;2.27;;
948;SDS011;461;51.436;7.312;2024-03-02T00:29:37;3.33;;;2.53;;
948;SDS011;461;51.436;7.312;2024-03-02T00:32:05;2.67;;;2.17;;
948;SDS011;461;51.436;7.312;2024-03-02T00:34:39;3.17;;;2.30;;
948;SDS011;461;51.436;7.312;2024-03-02T00:37:05;2.20;;;2.00;;
948;SDS011;461;51.436;7.312;2024-03-02T00:39:31;2.80;;;2.10;;
948;SDS011;461;51.436;7.312;2024-03-02T00:41:57;3.97;;;2.50;;
948;SDS011;461;51.436;7.312;2024-03-02T00:44:23;2.60;;;2.07;;
948;SDS011;461;51.436;7.312;2024-03-02T00:46:55;6.23;;;2.30;;
948;SDS011;461;51.436;7.312;2024-03-02T00:49:23;3.53;;;2.37;;
948;SDS011;461;51.436;7.312;2024-03-02T00:51:51;2.20;;;2.00;;
948;SDS011;461;51.436;7.312;2024-03-02T00:54:22;3.70;;;2.63;;
948;SDS011;461;51.436;7.312;2024-03-02T00:56:51;3.23;;;2.30;;
948;SDS011;461;51.436;7.312;2024-03-02T00:59:20;2.63;;;2.13;;
948;SDS011;461;51.436;7.312;2024-03-02T01:01:47;5.70;;;2.60;;
948;SDS011;461;51.436;7.312;2024-03-02T01:04:14;3.80;;;2.10;;
948;SDS011;461;51.436;7.312;2024-03-02T01:06:40;3.77;;;1.80;;
948;SDS011;461;51.436;7.312;2024-03-02T01:09:07;2.33;;;2.03;;
948;SDS011;461;51.436;7.312;2024-03-02T01:11:33;2.13;;;1.93;;
948;SDS011;461;51.436;7.312;2024-03-02T01:13:58;3.20;;;2.90;;
948;SDS011;461;51.436;7.312;2024-03-02T01:16:24;4.00;;;1.73;;
948;SDS011;461;51.436;7.312;2024-03-02T01:18:50;2.17;;;2.00;;
948;SDS011;461;51.436;7.312;2024-03-02T01:21:16;2.03;;;1.83;;
948;SDS011;461;51.436;7.312;2024-03-02T01:23:41;1.50;;;1.33;;
948;SDS011;461;51.436;7.312;2024-03-02T01:26:08;2.87;;;2.13;;
948;SDS011;461;51.436;7.312;2024-03-02T01:28:34;2.03;;;1.83;;
948;SDS011;461;51.436;7.312;2024-03-02T01:30:59;5.23;;;1.93;;
948;SDS011;461;51.436;7.312;2024-03-02T01:33:26;2.50;;;1.77;;
948;SDS011;461;51.436;7.312;2024-03-02T10:25:07;1.50;;;1.27;;
948;SDS011;461;51.436;7.312;2024-03-02T10:27:59;2.03;;;1.83;;
948;SDS011;461;51.436;7.312;2024-03-02T10:30:41;1.43;;;1.33;;
948;SDS011;461;51.436;7.312;2024-03-02T10:33:18;1.60;;;1.27;;
948;SDS011;461;51.436;7.312;2024-03-02T10:35:49;3.77;;;1.23;;
948;SDS011;461;51.436;7.312;2024-03-02T10:38:20;2.10;;;1.57;;
948;SDS011;461;51.436;7.312;2024-03-02T10:40:54;1.90;;;1.53;;
948;SDS011;461;51.436;7.312;2024-03-02T10:43:27;1.67;;;1.47;;
948;SDS011;461;51.436;7.312;2024-03-02T10:46:02;1.73;;;1.33;;
948;SDS011;461;51.436;7.312;2024-03-02T10:48:32;1.60;;;1.30;;
948;SDS011;461;51.436;7.312;2024-03-02T10:51:28;3.63;;;2.13;;
948;SDS011;461;51.436;7.312;2024-03-02T10:53:59;4.10;;;1.93;;
948;SDS011;461;51.436;7.312;2024-03-02T11:02:18;2.00;;;1.30;;
948;SDS011;461;51.436;7.312;2024-03-02T11:04:53;2.20;;;1.40;;
948;SDS011;461;51.436;7.312;2024-03-02T11:07:25;2.67;;;1.63;;
948;SDS011;461;51.436;7.312;2024-03-02T11:09:54;1.67;;;1.20;;
948;SDS011;461;51.436;7.312;2024-03-02T11:12:31;2.90;;;1.50;;
948;SDS011;461;51.436;7.312;2024-03-02T11:15:18;3.60;;;1.83;;
948;SDS011;461;51.436;7.312;2024-03-02T11:18:15;1.70;;;1.50;;
948;SDS011;461;51.436;7.312;2024-03-02T11:20:54;1.37;;;1.23;;
948;SDS011;461;51.436;7.312;2024-03-02T11:23:34;2.50;;;1.77;;
948;SDS011;461;51.436;7.312;2024-03-02T11:26:17;5.87;;;1.77;;
948;SDS011;461;51.436;7.312;2024-03-02T11:36:53;3.00;;;1.30;;
948;SDS011;461;51.436;7.312;2024-03-02T11:39:40;1.23;;;1.10;;
948;SDS011;461;51.436;7.312;2024-03-02T11:42:08;2.10;;;1.37;;
948;SDS011;461;51.436;7.312;2024-03-02T11:44:35;1.63;;;1.50;;
948;SDS011;461;51.436;7.312;2024-03-02T11:47:05;4.90;;;1.50;;
948;SDS011;461;51.436;7.312;2024-03-02T11:49:40;1.90;;;1.37;;
948;SDS011;461;51.436;7.312;2024-03-02T11:52:13;1.90;;;1.30;;
948;SDS011;461;51.436;7.312;2024-03-02T11:54:46;2.57;;;1.23;;
948;SDS011;461;51.436;7.312;2024-03-02T11:57:23;2.20;;;1.80;;
948;SDS011;461;51.436;7.312;2024-03-02T12:00:16;2.27;;;1.50;;
948;SDS011;461;51.436;7.312;2024-03-02T12:03:09;3.70;;;1.20;;
948;SDS011;461;51.436;7.312;2024-03-02T12:05:48;4.60;;;1.50;;
948;SDS011;461;51.436;7.312;2024-03-02T12:08:26;1.63;;;1.53;;
948;SDS011;461;51.436;7.312;2024-03-02T12:11:01;1.80;;;1.50;;
948;SDS011;461;51.436;7.312;2024-03-02T12:13:31;2.27;;;1.57;;
948;SDS011;461;51.436;7.312;2024-03-02T12:16:00;1.87;;;1.20;;
948;SDS011;461;51.436;7.312;2024-03-02T12:18:26;1.97;;;1.43;;
948;SDS011;461;51.436;7.312;2024-03-02T12:20:54;5.60;;;2.23;;
948;SDS011;461;51.436;7.312;2024-03-02T12:23:39;6.30;;;1.70;;
948;SDS011;461;51.436;7.312;2024-03-02T12:26:09;4.33;;;1.60;;
948;SDS011;461;51.436;7.312;2024-03-02T12:28:38;2.50;;;2.30;;
948;SDS011;461;51.436;7.312;2024-03-02T12:31:08;1.40;;;1.30;;
948;SDS011;461;51.436;7.312;2024-03-02T12:33:36;1.67;;;1.57;;
948;SDS011;461;51.436;7.312;2024-03-02T12:36:03;1.93;;;1.20;;
948;SDS011;461;51.436;7.312;2024-03-02T12:38:30;1.20;;;1.10;;
948;SDS011;461;51.436;7.312;2024-03-02T12:40:59;1.70;;;1.30;;
948;SDS011;461;51.436;7.312;2024-03-02T12:43:29;6.33;;;1.40;;
948;SDS011;461;51.436;7.312;2024-03-02T12:45:59;1.53;;;1.27;;
948;SDS011;461;51.436;7.312;2024-03-02T12:48:25;2.80;;;2.13;;
948;SDS011;461;51.436;7.312;2024-03-02T12:51:02;4.73;;;1.50;;
948;SDS011;461;51.436;7.312;2024-03-02T12:53:55;3.33;;;1.80;;
948;SDS011;461;51.436;7.312;2024-03-02T12:56:28;1.50;;;1.40;;
948;SDS011;461;51.436;7.312;2024-03-02T12:59:08;1.03;;;0.93;;
948;SDS011;461;51.436;7.312;2024-03-02T13:01:49;1.80;;;1.20;;
948;SDS011;461;51.436;7.312;2024-03-02T13:04:26;1.93;;;1.43;;
948;SDS011;461;51.436;7.312;2024-03-02T13:06:58;1.70;;;1.60;;
948;SDS011;461;51.436;7.312;2024-03-02T13:09:30;1.77;;;1.67;;
948;SDS011;461;51.436;7.312;2024-03-02T13:12:02;1.23;;;1.10;;
948;SDS011;461;51.436;7.312;2024-03-02T13:14:31;1.17;;;1.07;;
948;SDS011;461;51.436;7.312;2024-03-02T13:16:58;3.10;;;1.13;;
948;SDS011;461;51.436;7.312;2024-03-02T13:19:28;1.20;;;1.10;;
948;SDS011;461;51.436;7.312;2024-03-02T13:21:56;1.50;;;1.30;;
948;SDS011;461;51.436;7.312;2024-03-02T13:24:22;1.30;;;1.20;;
948;SDS011;461;51.436;7.312;2024-03-02T13:26:53;1.77;;;1.47;;
948;SDS011;461;51.436;7.312;2024-03-02T13:29:26;1.37;;;1.20;;
948;SDS011;461;51.436;7.312;2024-03-02T13:31:54;1.40;;;1.30;;
948;SDS011;461;51.436;7.312;2024-03-02T13:34:23;3.83;;;1.33;;
948;SDS011;461;51.436;7.312;2024-03-02T20:13:05;4.00;;;2.37;;
948;SDS011;461;51.436;7.312;2024-03-02T20:15:32;2.90;;;2.60;;
948;SDS011;461;51.436;7.312;2024-03-02T20:17:58;3.03;;;2.40;;
948;SDS011;461;51.436;7.312;2024-03-02T20:20:23;3.23;;;2.20;;
948;SDS011;461;51.436;7.312;2024-03-02T20:22:49;4.60;;;2.33;;
948;SDS011;461;51.436;7.312;2024-03-02T20:25:15;3.73;;;2.17;;
948;SDS011;461;51.436;7.312;2024-03-02T20:27:41;7.53;;;2.93;;
948;SDS011;461;51.436;7.312;2024-03-02T20:30:08;3.53;;;2.33;;
948;SDS011;461;51.436;7.312;2024-03-02T20:32:35;2.70;;;2.50;;
948;SDS011;461;51.436;7.312;2024-03-02T20:35:01;2.87;;;2.50;;
948;SDS011;461;51.436;7.312;2024-03-02T20:37:27;4.00;;;3.30;;
948;SDS011;461;51.436;7.312;2024-03-02T20:39:53;2.60;;;2.40;;
948;SDS011;461;51.436;7.312;2024-03-02T20:42:25;3.13;;;2.80;;
948;SDS011;461;51.436;7.312;2024-03-02T20:44:51;2.90;;;2.20;;
948;SDS011;461;51.436;7.312;2024-03-02T20:47:18;4.50;;;2.73;;
948;SDS011;461;51.436;7.312;2024-03-02T20:49:44;3.03;;;2.43;;
948;SDS011;461;51.436;7.312;2024-03-02T20:52:10;3.50;;;2.67;;
948;SDS011;461;51.436;7.312;2024-03-02T20:54:36;3.90;;;2.73;;
948;SDS011;461;51.436;7.312;2024-03-02T20:57:04;3.63;;;2.80;;
948;SDS011;461;51.436;7.312;2024-03-02T20:59:34;2.70;;;2.33;;
948;SDS011;461;51.436;7.312;2024-03-02T21:02:00;2.93;;;2.20;;
948;SDS011;461;51.436;7.312;2024-03-02T21:04:27;6.53;;;3.40;;
948;SDS011;461;51.436;7.312;2024-03-02T21:06:53;5.63;;;2.57;;
948;SDS011;461;51.436;7.312;2024-03-02T21:09:19;3.30;;;2.90;;
948;SDS011;461;51.436;7.312;2024-03-02T21:11:44;3.60;;;2.90;;
948;SDS011;461;51.436;7.312;2024-03-02T21:14:12;3.40;;;2.80;;
948;SDS011;461;51.436;7.312;2024-03-02T21:16:38;4.30;;;2.90;;
948;SDS011;461;51.436;7.312;2024-03-02T21:19:07;3.80;;;3.03;;
948;SDS011;461;51.436;7.312;2024-03-02T21:21:35;4.17;;;3.03;;
948;SDS011;461;51.436;7.312;2024-03-02T21:24:03;3.73;;;3.17;;
948;SDS011;461;51.436;7.312;2024-03-02T21:26:29;4.40;;;3.30;;
948;SDS011;461;51.436;7.312;2024-03-02T21:28:56;4.03;;;3.20;;
948;SDS011;461;51.436;7.312;2024-03-02T21:31:22;5.43;;;2.73;;
948;SDS011;461;51.436;7.312;2024-03-02T21:33:48;3.30;;;2.87;;
948;SDS011;461;51.436;7.312;2024-03-02T21:36:14;4.67;;;2.77;;
948;SDS011;461;51.436;7.312;2024-03-02T21:38:39;3.87;;;3.23;;
948;SDS011;461;51.436;7.312;2024-03-02T21:41:05;3.27;;;2.97;;
948;SDS011;461;51.436;7.312;2024-03-02T21:43:31;3.97;;;3.43;;
948;SDS011;461;51.436;7.312;2024-03-02T21:45:58;5.93;;;3.20;;
948;SDS011;461;51.436;7.312;2024-03-02T21:48:23;5.77;;;3.00;;
948;SDS011;461;51.436;7.312;2024-03-02T21:50:49;4.57;;;3.03;;
948;SDS011;461;51.436;7.312;2024-03-02T21:53:15;5.50;;;3.33;;
948;SDS011;461;51.436;7.312;2024-03-02T21:55:41;4.23;;;3.73;;
948;SDS011;461;51.436;7.312;2024-03-02T21:58:06;4.67;;;3.00;;
948;SDS011;461;51.436;7.312;2024-03-02T22:00:32;2.90;;;2.60;;
948;SDS011;461;51.436;7.312;2024-03-02T22:03:01;4.50;;;3.20;;
948;SDS011;461;51.436;7.312;2024-03-02T22:05:28;3.83;;;3.27;;
948;SDS011;461;51.436;7.312;2024-03-02T22:07:54;5.50;;;3.17;;
948;SDS011;461;51.436;7.312;2024-03-02T22:10:20;4.20;;;3.13;;
948;SDS011;461;51.436;7.312;2024-03-02T22:12:46;3.60;;;3.20;;
948;SDS011;461;51.436;7.312;2024-03-02T22:15:12;3.73;;;3.10;;
948;SDS011;461;51.436;7.312;2024-03-02T22:17:37;7.23;;;3.90;;
948;SDS011;461;51.436;7.312;2024-03-02T22:20:03;7.33;;;3.80;;
948;SDS011;461;51.436;7.312;2024-03-02T22:22:29;5.67;;;3.30;;
948;SDS011;461;51.436;7.312;2024-03-02T22:24:55;6.17;;;3.43;;
948;SDS011;461;51.436;7.312;2024-03-02T22:27:21;5.60;;;4.00;;
948;SDS011;461;51.436;7.312;2024-03-02T22:29:47;6.73;;;3.20;;
948;SDS011;461;51.436;7.312;2024-03-02T22:32:12;5.30;;;3.70;;
948;SDS011;461;51.436;7.312;2024-03-02T22:34:38;5.20;;;3.30;;
948;SDS011;461;51.436;7.312;2024-03-02T22:37:04;5.03;;;3.50;;
948;SDS011;461;51.436;7.312;2024-03-02T22:39:30;3.90;;;3.23;;
948;SDS011;461;51.436;7.312;2024-03-02T22:41:55;4.90;;;2.97;;
948;SDS011;461;51.436;7.312;2024-03-02T22:44:21;4.53;;;3.53;;
948;SDS011;461;51.436;7.312;2024-03-02T22:46:47;6.17;;;3.20;;
948;SDS011;461;51.436;7.312;2024-03-02T22:49:13;4.60;;;3.90;;
948;SDS011;461;51.436;7.312;2024-03-02T22:51:38;7.33;;;3.87;;
948;SDS011;461;51.436;7.312;2024-03-02T22:54:04;4.93;;;3.10;;
948;SDS011;461;51.436;7.312;2024-03-02T22:56:30;4.47;;;3.07;;
948;SDS011;461;51.436;7.312;2024-03-02T22:58:56;5.90;;;3.30;;
948;SDS011;461;51.436;7.312;2024-03-02T23:01:22;5.63;;;3.57;;
948;SDS011;461;51.436;7.312;2024-03-02T23:03:48;4.57;;;3.40;;
948;SDS011;461;51.436;7.312;2024-03-02T23:06:13;13.40;;;4.13;;
948;SDS011;461;51.436;7.312;2024-03-02T23:08:39;8.77;;;3.40;;
948;SDS011;461;51.436;7.312;2024-03-02T23:11:05;4.67;;;3.93;;
948;SDS011;461;51.436;7.312;2024-03-02T23:13:31;5.20;;;3.60;;
948;SDS011;461;51.436;7.312;2024-03-02T23:15:57;5.57;;;3.60;;
948;SDS011;461;51.436;7.312;2024-03-02T23:18:26;7.27;;;3.90;;
948;SDS011;461;51.436;7.312;2024-03-02T23:20:52;4.40;;;3.60;;
948;SDS011;461;51.436;7.312;2024-03-02T23:23:18;6.87;;;2.97;;
948;SDS011;461;51.436;7.312;2024-03-02T23:25:44;4.30;;;3.43;;
948;SDS011;461;51.436;7.312;2024-03-02T23:28:10;7.77;;;3.90;;
948;SDS011;461;51.436;7.312;2024-03-02T23:30:36;9.10;;;3.90;;
948;SDS011;461;51.436;7.312;2024-03-02T23:33:02;6.40;;;3.73;;
948;SDS011;461;51.436;7.312;2024-03-02T23:35:28;3.60;;;3.30;;
948;SDS011;461;51.436;7.312;2024-03-02T23:37:54;5.00;;;4.33;;
948;SDS011;461;51.436;7.312;2024-03-02T23:40:26;3.90;;;3.10;;
948;SDS011;461;51.436;7.312;2024-03-02T23:43:10;5.50;;;3.53;;
948;SDS011;461;51.436;7.312;2024-03-02T23:45:36;6.70;;;4.17;;
948;SDS011;461;51.436;7.312;2024-03-02T23:48:02;4.10;;;3.20;;
948;SDS011;461;51.436;7.312;2024-03-02T23:50:28;5.30;;;4.00;;
948;SDS011;461;51.436;7.312;2024-03-02T23:52:54;4.00;;;3.63;;
948;SDS011;461;51.436;7.312;2024-03-02T23:55:19;4.23;;;2.70;;
948;SDS011;461;51.436;7.312;2024-03-02T23:57:45;6.50;;;3.20;;
